sensor_id;sensor_type;location;lat;lon;timestamp;P1;durP1;ratioP1;P2;durP2;ratioP2
38853;SDS011;24606;51.992;4.198;2023-12-28T00:00:41;14.40;;;3.05;;
38853;SDS011;24606;51.992;4.198;2023-12-28T00:05:43;18.25;;;3.33;;
38853;SDS011;24606;51.992;4.198;2023-12-28T00:10:46;14.97;;;3.53;;
38853;SDS011;24606;51.992;4.198;2023-12-28T00:15:49;14.45;;;2.70;;
38853;SDS011;24606;51.992;4.198;2023-12-28T00:20:54;17.35;;;4.60;;
38853;SDS011;24606;51.992;4.198;2023-12-28T00:25:57;12.32;;;3.03;;
38853;SDS011;24606;51.992;4.198;2023-12-28T00:31:00;11.60;;;2.60;;
38853;SDS011;24606;51.992;4.198;2023-12-28T00:36:03;12.95;;;2.75;;
38853;SDS011;24606;51.992;4.198;2023-12-28T00:41:05;16.45;;;2.95;;
38853;SDS011;24606;51.992;4.198;2023-12-28T00:46:09;16.80;;;3.70;;
38853;SDS011;24606;51.992;4.198;2023-12-28T00:51:13;9.45;;;2.38;;
38853;SDS011;24606;51.992;4.198;2023-12-28T00:56:16;8.63;;;2.65;;
38853;SDS011;24606;51.992;4.198;2023-12-28T01:01:21;9.98;;;3.13;;
38853;SDS011;24606;51.992;4.198;2023-12-28T01:06:27;15.88;;;3.20;;
38853;SDS011;24606;51.992;4.198;2023-12-28T01:11:29;12.40;;;2.42;;
38853;SDS011;24606;51.992;4.198;2023-12-28T01:16:33;8.37;;;2.33;;
38853;SDS011;24606;51.992;4.198;2023-12-28T01:21:35;12.90;;;3.47;;
38853;SDS011;24606;51.992;4.198;2023-12-28T01:26:37;14.63;;;2.85;;
38853;SDS011;24606;51.992;4.198;2023-12-28T01:31:42;12.90;;;3.17;;
38853;SDS011;24606;51.992;4.198;2023-12-28T01:36:44;16.08;;;3.05;;
38853;SDS011;24606;51.992;4.198;2023-12-28T01:41:46;14.07;;;3.30;;
38853;SDS011;24606;51.992;4.198;2023-12-28T01:46:51;16.40;;;2.90;;
38853;SDS011;24606;51.992;4.198;2023-12-28T01:51:54;17.30;;;3.10;;
38853;SDS011;24606;51.992;4.198;2023-12-28T01:56:57;8.30;;;2.33;;
38853;SDS011;24606;51.992;4.198;2023-12-28T02:02:03;18.00;;;2.92;;
38853;SDS011;24606;51.992;4.198;2023-12-28T02:07:05;13.45;;;2.58;;
38853;SDS011;24606;51.992;4.198;2023-12-28T02:12:08;5.05;;;1.95;;
38853;SDS011;24606;51.992;4.198;2023-12-28T02:17:13;14.52;;;2.88;;
38853;SDS011;24606;51.992;4.198;2023-12-28T02:22:17;19.05;;;3.67;;
38853;SDS011;24606;51.992;4.198;2023-12-28T02:27:23;12.73;;;2.60;;
38853;SDS011;24606;51.992;4.198;2023-12-28T02:32:28;17.67;;;2.53;;
38853;SDS011;24606;51.992;4.198;2023-12-28T02:37:35;20.38;;;3.38;;
38853;SDS011;24606;51.992;4.198;2023-12-28T02:42:41;11.07;;;1.30;;
38853;SDS011;24606;51.992;4.198;2023-12-28T02:47:43;15.93;;;3.03;;
38853;SDS011;24606;51.992;4.198;2023-12-28T02:52:45;15.10;;;3.08;;
38853;SDS011;24606;51.992;4.198;2023-12-28T02:57:50;13.03;;;2.77;;
38853;SDS011;24606;51.992;4.198;2023-12-28T03:02:55;19.10;;;3.15;;
38853;SDS011;24606;51.992;4.198;2023-12-28T03:13:01;21.08;;;4.05;;
38853;SDS011;24606;51.992;4.198;2023-12-28T03:18:04;22.95;;;3.80;;
38853;SDS011;24606;51.992;4.198;2023-12-28T03:23:06;17.02;;;3.00;;
38853;SDS011;24606;51.992;4.198;2023-12-28T03:28:09;27.43;;;3.30;;
38853;SDS011;24606;51.992;4.198;2023-12-28T03:33:12;18.85;;;2.50;;
38853;SDS011;24606;51.992;4.198;2023-12-28T03:38:14;25.53;;;3.40;;
38853;SDS011;24606;51.992;4.198;2023-12-28T03:43:18;21.38;;;2.75;;
38853;SDS011;24606;51.992;4.198;2023-12-28T03:48:20;18.50;;;3.05;;
38853;SDS011;24606;51.992;4.198;2023-12-28T03:53:22;20.55;;;3.72;;
38853;SDS011;24606;51.992;4.198;2023-12-28T04:15:31;21.58;;;3.33;;
38853;SDS011;24606;51.992;4.198;2023-12-28T04:20:36;24.15;;;3.85;;
38853;SDS011;24606;51.992;4.198;2023-12-28T04:25:38;18.27;;;2.63;;
38853;SDS011;24606;51.992;4.198;2023-12-28T04:30:42;14.18;;;3.42;;
38853;SDS011;24606;51.992;4.198;2023-12-28T04:35:44;19.42;;;3.22;;
38853;SDS011;24606;51.992;4.198;2023-12-28T04:40:47;28.70;;;5.37;;
38853;SDS011;24606;51.992;4.198;2023-12-28T04:45:51;22.77;;;2.95;;
38853;SDS011;24606;51.992;4.198;2023-12-28T04:50:53;29.25;;;4.25;;
38853;SDS011;24606;51.992;4.198;2023-12-28T04:55:55;25.40;;;4.03;;
38853;SDS011;24606;51.992;4.198;2023-12-28T05:01:00;18.55;;;4.45;;
38853;SDS011;24606;51.992;4.198;2023-12-28T05:06:03;29.73;;;5.72;;
38853;SDS011;24606;51.992;4.198;2023-12-28T05:11:05;32.33;;;4.88;;
38853;SDS011;24606;51.992;4.198;2023-12-28T05:16:09;31.13;;;4.77;;
38853;SDS011;24606;51.992;4.198;2023-12-28T05:21:11;34.80;;;7.05;;
38853;SDS011;24606;51.992;4.198;2023-12-28T05:26:14;18.93;;;3.03;;
38853;SDS011;24606;51.992;4.198;2023-12-28T05:31:18;25.08;;;4.32;;
38853;SDS011;24606;51.992;4.198;2023-12-28T05:36:20;25.65;;;4.95;;
38853;SDS011;24606;51.992;4.198;2023-12-28T05:41:22;32.10;;;5.80;;
38853;SDS011;24606;51.992;4.198;2023-12-28T05:46:26;25.17;;;5.03;;
38853;SDS011;24606;51.992;4.198;2023-12-28T05:51:28;32.50;;;5.38;;
38853;SDS011;24606;51.992;4.198;2023-12-28T05:56:30;38.58;;;6.80;;
38853;SDS011;24606;51.992;4.198;2023-12-28T06:01:40;36.05;;;5.72;;
38853;SDS011;24606;51.992;4.198;2023-12-28T06:06:43;35.80;;;6.18;;
38853;SDS011;24606;51.992;4.198;2023-12-28T06:11:45;30.27;;;3.87;;
38853;SDS011;24606;51.992;4.198;2023-12-28T06:16:49;39.93;;;4.97;;
38853;SDS011;24606;51.992;4.198;2023-12-28T06:21:52;43.63;;;6.53;;
38853;SDS011;24606;51.992;4.198;2023-12-28T06:26:54;32.90;;;5.43;;
38853;SDS011;24606;51.992;4.198;2023-12-28T06:31:58;34.60;;;6.30;;
38853;SDS011;24606;51.992;4.198;2023-12-28T06:37:00;41.42;;;7.05;;
38853;SDS011;24606;51.992;4.198;2023-12-28T06:42:04;40.50;;;8.20;;
38853;SDS011;24606;51.992;4.198;2023-12-28T06:47:07;36.83;;;6.32;;
38853;SDS011;24606;51.992;4.198;2023-12-28T06:52:09;36.60;;;7.15;;
38853;SDS011;24606;51.992;4.198;2023-12-28T06:57:11;53.10;;;5.30;;
38853;SDS011;24606;51.992;4.198;2023-12-28T07:02:15;37.03;;;6.27;;
38853;SDS011;24606;51.992;4.198;2023-12-28T07:07:17;28.23;;;5.20;;
38853;SDS011;24606;51.992;4.198;2023-12-28T07:12:19;36.92;;;5.93;;
38853;SDS011;24606;51.992;4.198;2023-12-28T07:22:26;50.67;;;4.47;;
38853;SDS011;24606;51.992;4.198;2023-12-28T07:27:28;37.75;;;6.70;;
38853;SDS011;24606;51.992;4.198;2023-12-28T07:32:32;27.20;;;5.97;;
38853;SDS011;24606;51.992;4.198;2023-12-28T07:37:34;32.60;;;5.78;;
38853;SDS011;24606;51.992;4.198;2023-12-28T07:42:36;30.77;;;5.38;;
38853;SDS011;24606;51.992;4.198;2023-12-28T07:47:40;38.28;;;5.47;;
38853;SDS011;24606;51.992;4.198;2023-12-28T07:52:42;27.90;;;4.68;;
38853;SDS011;24606;51.992;4.198;2023-12-28T07:57:44;22.53;;;4.53;;
38853;SDS011;24606;51.992;4.198;2023-12-28T08:02:48;47.85;;;7.00;;
38853;SDS011;24606;51.992;4.198;2023-12-28T08:07:50;29.27;;;4.53;;
38853;SDS011;24606;51.992;4.198;2023-12-28T08:12:52;16.85;;;3.13;;
38853;SDS011;24606;51.992;4.198;2023-12-28T08:17:55;31.58;;;3.92;;
38853;SDS011;24606;51.992;4.198;2023-12-28T08:22:57;23.35;;;3.55;;
38853;SDS011;24606;51.992;4.198;2023-12-28T08:27:59;33.05;;;4.68;;
38853;SDS011;24606;51.992;4.198;2023-12-28T08:33:05;26.52;;;3.10;;
38853;SDS011;24606;51.992;4.198;2023-12-28T08:38:07;19.13;;;3.78;;
38853;SDS011;24606;51.992;4.198;2023-12-28T08:43:09;32.28;;;4.80;;
38853;SDS011;24606;51.992;4.198;2023-12-28T08:48:12;25.95;;;4.75;;
38853;SDS011;24606;51.992;4.198;2023-12-28T08:53:14;41.08;;;6.00;;
38853;SDS011;24606;51.992;4.198;2023-12-28T08:58:16;33.08;;;4.65;;
38853;SDS011;24606;51.992;4.198;2023-12-28T09:03:19;25.53;;;3.73;;
38853;SDS011;24606;51.992;4.198;2023-12-28T09:08:21;36.63;;;5.43;;
38853;SDS011;24606;51.992;4.198;2023-12-28T09:13:25;34.20;;;5.57;;
38853;SDS011;24606;51.992;4.198;2023-12-28T09:18:29;38.50;;;6.25;;
38853;SDS011;24606;51.992;4.198;2023-12-28T09:23:31;48.97;;;6.75;;
38853;SDS011;24606;51.992;4.198;2023-12-28T09:28:34;39.35;;;5.53;;
38853;SDS011;24606;51.992;4.198;2023-12-28T09:33:38;37.90;;;5.57;;
38853;SDS011;24606;51.992;4.198;2023-12-28T09:38:40;33.53;;;3.83;;
38853;SDS011;24606;51.992;4.198;2023-12-28T09:43:44;30.10;;;4.25;;
38853;SDS011;24606;51.992;4.198;2023-12-28T09:48:54;36.47;;;5.25;;
38853;SDS011;24606;51.992;4.198;2023-12-28T09:53:57;33.42;;;4.05;;
38853;SDS011;24606;51.992;4.198;2023-12-28T09:59:03;30.13;;;5.20;;
38853;SDS011;24606;51.992;4.198;2023-12-28T10:04:08;41.42;;;5.72;;
38853;SDS011;24606;51.992;4.198;2023-12-28T10:09:10;45.78;;;6.80;;
38853;SDS011;24606;51.992;4.198;2023-12-28T10:14:13;25.40;;;4.35;;
38853;SDS011;24606;51.992;4.198;2023-12-28T10:19:16;32.80;;;5.23;;
38853;SDS011;24606;51.992;4.198;2023-12-28T10:24:23;43.55;;;8.20;;
38853;SDS011;24606;51.992;4.198;2023-12-28T10:29:25;34.07;;;4.63;;
38853;SDS011;24606;51.992;4.198;2023-12-28T10:39:31;30.33;;;6.38;;
38853;SDS011;24606;51.992;4.198;2023-12-28T10:44:36;28.42;;;4.88;;
38853;SDS011;24606;51.992;4.198;2023-12-28T10:49:45;35.83;;;4.85;;
38853;SDS011;24606;51.992;4.198;2023-12-28T10:54:51;29.88;;;6.07;;
38853;SDS011;24606;51.992;4.198;2023-12-28T11:00:00;23.95;;;4.05;;
38853;SDS011;24606;51.992;4.198;2023-12-28T11:05:10;34.45;;;5.97;;
38853;SDS011;24606;51.992;4.198;2023-12-28T11:10:14;45.40;;;6.63;;
38853;SDS011;24606;51.992;4.198;2023-12-28T11:15:17;34.17;;;3.92;;
38853;SDS011;24606;51.992;4.198;2023-12-28T11:20:21;40.50;;;5.47;;
38853;SDS011;24606;51.992;4.198;2023-12-28T11:25:24;20.58;;;3.53;;
38853;SDS011;24606;51.992;4.198;2023-12-28T11:30:33;32.13;;;5.60;;
38853;SDS011;24606;51.992;4.198;2023-12-28T11:35:37;35.17;;;4.28;;
38853;SDS011;24606;51.992;4.198;2023-12-28T11:40:41;45.75;;;6.63;;
38853;SDS011;24606;51.992;4.198;2023-12-28T11:45:47;31.05;;;5.47;;
38853;SDS011;24606;51.992;4.198;2023-12-28T11:50:52;35.70;;;5.65;;
38853;SDS011;24606;51.992;4.198;2023-12-28T11:56:00;25.27;;;4.43;;
38853;SDS011;24606;51.992;4.198;2023-12-28T12:01:03;29.50;;;4.97;;
38853;SDS011;24606;51.992;4.198;2023-12-28T12:06:08;37.75;;;5.97;;
38853;SDS011;24606;51.992;4.198;2023-12-28T12:11:10;29.58;;;4.78;;
38853;SDS011;24606;51.992;4.198;2023-12-28T12:16:13;35.25;;;5.47;;
38853;SDS011;24606;51.992;4.198;2023-12-28T12:21:17;34.07;;;4.70;;
38853;SDS011;24606;51.992;4.198;2023-12-28T12:26:20;43.13;;;6.57;;
38853;SDS011;24606;51.992;4.198;2023-12-28T12:31:22;35.53;;;5.10;;
38853;SDS011;24606;51.992;4.198;2023-12-28T12:36:27;23.58;;;4.72;;
38853;SDS011;24606;51.992;4.198;2023-12-28T12:41:30;36.53;;;5.45;;
38853;SDS011;24606;51.992;4.198;2023-12-28T12:46:32;25.95;;;3.53;;
38853;SDS011;24606;51.992;4.198;2023-12-28T12:51:36;35.13;;;5.32;;
38853;SDS011;24606;51.992;4.198;2023-12-28T12:56:40;24.92;;;3.30;;
38853;SDS011;24606;51.992;4.198;2023-12-28T13:01:45;28.52;;;4.50;;
38853;SDS011;24606;51.992;4.198;2023-12-28T13:06:51;34.75;;;5.80;;
38853;SDS011;24606;51.992;4.198;2023-12-28T13:11:53;44.45;;;5.97;;
38853;SDS011;24606;51.992;4.198;2023-12-28T13:16:56;45.17;;;6.33;;
38853;SDS011;24606;51.992;4.198;2023-12-28T13:27:02;0.10;;;0.10;;
38853;SDS011;24606;51.992;4.198;2023-12-28T13:32:04;0.40;;;0.40;;
38853;SDS011;24606;51.992;4.198;2023-12-28T13:37:08;0.10;;;0.10;;
38853;SDS011;24606;51.992;4.198;2023-12-28T13:42:10;27.85;;;5.05;;
38853;SDS011;24606;51.992;4.198;2023-12-28T13:47:21;42.88;;;5.55;;
38853;SDS011;24606;51.992;4.198;2023-12-28T13:52:24;28.48;;;4.65;;
38853;SDS011;24606;51.992;4.198;2023-12-28T13:57:28;32.90;;;4.72;;
38853;SDS011;24606;51.992;4.198;2023-12-28T14:02:30;29.65;;;5.38;;
38853;SDS011;24606;51.992;4.198;2023-12-28T14:07:35;42.75;;;6.47;;
38853;SDS011;24606;51.992;4.198;2023-12-28T14:12:37;45.67;;;6.03;;
38853;SDS011;24606;51.992;4.198;2023-12-28T14:17:39;36.45;;;5.50;;
38853;SDS011;24606;51.992;4.198;2023-12-28T14:22:45;33.00;;;3.88;;
38853;SDS011;24606;51.992;4.198;2023-12-28T14:27:48;34.35;;;4.18;;
38853;SDS011;24606;51.992;4.198;2023-12-28T14:32:51;34.75;;;4.72;;
38853;SDS011;24606;51.992;4.198;2023-12-28T14:37:55;31.15;;;5.68;;
38853;SDS011;24606;51.992;4.198;2023-12-28T14:42:57;30.20;;;3.65;;
38853;SDS011;24606;51.992;4.198;2023-12-28T14:48:00;41.20;;;5.00;;
38853;SDS011;24606;51.992;4.198;2023-12-28T14:53:06;26.38;;;4.68;;
38853;SDS011;24606;51.992;4.198;2023-12-28T14:58:09;30.80;;;5.15;;
38853;SDS011;24606;51.992;4.198;2023-12-28T15:03:10;32.30;;;4.90;;
38853;SDS011;24606;51.992;4.198;2023-12-28T15:08:14;25.97;;;4.00;;
38853;SDS011;24606;51.992;4.198;2023-12-28T15:13:17;30.63;;;6.28;;
38853;SDS011;24606;51.992;4.198;2023-12-28T15:18:19;35.67;;;6.28;;
38853;SDS011;24606;51.992;4.198;2023-12-28T15:23:24;29.05;;;5.25;;
38853;SDS011;24606;51.992;4.198;2023-12-28T15:28:28;26.60;;;5.80;;
38853;SDS011;24606;51.992;4.198;2023-12-28T15:33:34;24.98;;;4.65;;
38853;SDS011;24606;51.992;4.198;2023-12-28T15:38:37;21.63;;;4.10;;
38853;SDS011;24606;51.992;4.198;2023-12-28T15:43:39;28.60;;;5.88;;
38853;SDS011;24606;51.992;4.198;2023-12-28T15:48:42;26.20;;;4.60;;
38853;SDS011;24606;51.992;4.198;2023-12-28T15:53:45;26.10;;;4.97;;
38853;SDS011;24606;51.992;4.198;2023-12-28T15:58:47;35.83;;;6.07;;
38853;SDS011;24606;51.992;4.198;2023-12-28T16:03:49;23.33;;;4.25;;
38853;SDS011;24606;51.992;4.198;2023-12-28T16:08:52;32.35;;;4.95;;
38853;SDS011;24606;51.992;4.198;2023-12-28T16:13:55;25.02;;;4.72;;
38853;SDS011;24606;51.992;4.198;2023-12-28T16:18:59;29.27;;;3.55;;
38853;SDS011;24606;51.992;4.198;2023-12-28T16:24:03;28.13;;;4.65;;
38853;SDS011;24606;51.992;4.198;2023-12-28T16:29:06;17.10;;;4.05;;
38853;SDS011;24606;51.992;4.198;2023-12-28T16:34:08;21.88;;;3.50;;
38853;SDS011;24606;51.992;4.198;2023-12-28T16:39:15;20.00;;;3.78;;
38853;SDS011;24606;51.992;4.198;2023-12-28T16:44:18;21.83;;;3.38;;
38853;SDS011;24606;51.992;4.198;2023-12-28T16:49:20;26.43;;;3.27;;
38853;SDS011;24606;51.992;4.198;2023-12-28T16:54:23;23.10;;;3.17;;
38853;SDS011;24606;51.992;4.198;2023-12-28T16:59:25;33.53;;;5.97;;
38853;SDS011;24606;51.992;4.198;2023-12-28T17:04:28;29.15;;;4.32;;
38853;SDS011;24606;51.992;4.198;2023-12-28T17:09:35;17.40;;;3.80;;
38853;SDS011;24606;51.992;4.198;2023-12-28T17:14:38;29.77;;;5.00;;
38853;SDS011;24606;51.992;4.198;2023-12-28T17:19:43;37.70;;;5.10;;
38853;SDS011;24606;51.992;4.198;2023-12-28T17:24:51;27.33;;;3.35;;
38853;SDS011;24606;51.992;4.198;2023-12-28T17:30:00;19.00;;;3.65;;
38853;SDS011;24606;51.992;4.198;2023-12-28T17:35:04;33.13;;;6.63;;
38853;SDS011;24606;51.992;4.198;2023-12-28T17:40:09;22.67;;;3.78;;
38853;SDS011;24606;51.992;4.198;2023-12-28T17:45:12;29.67;;;3.95;;
38853;SDS011;24606;51.992;4.198;2023-12-28T17:50:16;33.28;;;4.20;;
38853;SDS011;24606;51.992;4.198;2023-12-28T17:55:21;30.02;;;4.88;;
38853;SDS011;24606;51.992;4.198;2023-12-28T18:00:23;23.80;;;3.90;;
38853;SDS011;24606;51.992;4.198;2023-12-28T18:05:26;26.58;;;3.78;;
38853;SDS011;24606;51.992;4.198;2023-12-28T18:10:29;21.88;;;4.28;;
38853;SDS011;24606;51.992;4.198;2023-12-28T18:15:31;24.00;;;3.95;;
38853;SDS011;24606;51.992;4.198;2023-12-28T18:20:33;31.55;;;4.50;;
38853;SDS011;24606;51.992;4.198;2023-12-28T18:25:39;19.63;;;4.23;;
38853;SDS011;24606;51.992;4.198;2023-12-28T18:30:41;26.08;;;5.57;;
38853;SDS011;24606;51.992;4.198;2023-12-28T18:35:44;28.58;;;4.20;;
38853;SDS011;24606;51.992;4.198;2023-12-28T18:40:48;24.15;;;3.20;;
38853;SDS011;24606;51.992;4.198;2023-12-28T18:45:50;22.15;;;3.83;;
38853;SDS011;24606;51.992;4.198;2023-12-28T18:50:52;24.20;;;3.67;;
38853;SDS011;24606;51.992;4.198;2023-12-28T18:55:56;20.77;;;3.60;;
38853;SDS011;24606;51.992;4.198;2023-12-28T19:00:58;21.67;;;4.88;;
38853;SDS011;24606;51.992;4.198;2023-12-28T19:06:00;29.57;;;4.37;;
38853;SDS011;24606;51.992;4.198;2023-12-28T19:11:04;34.75;;;5.90;;
38853;SDS011;24606;51.992;4.198;2023-12-28T19:16:17;21.77;;;3.63;;
38853;SDS011;24606;51.992;4.198;2023-12-28T19:21:20;35.15;;;5.80;;
38853;SDS011;24606;51.992;4.198;2023-12-28T19:26:26;23.25;;;3.47;;
38853;SDS011;24606;51.992;4.198;2023-12-28T19:31:28;24.45;;;3.90;;
38853;SDS011;24606;51.992;4.198;2023-12-28T19:36:34;20.67;;;3.50;;
38853;SDS011;24606;51.992;4.198;2023-12-28T19:41:39;24.13;;;4.65;;
38853;SDS011;24606;51.992;4.198;2023-12-28T19:46:41;19.42;;;2.92;;
38853;SDS011;24606;51.992;4.198;2023-12-28T19:51:43;18.35;;;3.78;;
38853;SDS011;24606;51.992;4.198;2023-12-28T19:56:47;23.90;;;3.58;;
38853;SDS011;24606;51.992;4.198;2023-12-28T20:01:49;40.72;;;4.65;;
38853;SDS011;24606;51.992;4.198;2023-12-28T20:06:54;15.70;;;3.75;;
38853;SDS011;24606;51.992;4.198;2023-12-28T20:12:01;21.23;;;3.95;;
38853;SDS011;24606;51.992;4.198;2023-12-28T20:17:03;19.38;;;3.17;;
38853;SDS011;24606;51.992;4.198;2023-12-28T20:22:05;21.63;;;3.77;;
38853;SDS011;24606;51.992;4.198;2023-12-28T20:27:11;15.25;;;3.47;;
38853;SDS011;24606;51.992;4.198;2023-12-28T20:32:13;22.33;;;3.95;;
38853;SDS011;24606;51.992;4.198;2023-12-28T20:37:15;25.90;;;4.57;;
38853;SDS011;24606;51.992;4.198;2023-12-28T20:42:19;22.02;;;3.78;;
38853;SDS011;24606;51.992;4.198;2023-12-28T20:47:23;19.67;;;2.90;;
38853;SDS011;24606;51.992;4.198;2023-12-28T20:52:25;20.27;;;4.20;;
38853;SDS011;24606;51.992;4.198;2023-12-28T20:57:29;15.60;;;3.80;;
38853;SDS011;24606;51.992;4.198;2023-12-28T21:02:43;22.58;;;3.70;;
38853;SDS011;24606;51.992;4.198;2023-12-28T21:07:45;24.45;;;3.72;;
38853;SDS011;24606;51.992;4.198;2023-12-28T21:12:48;29.08;;;4.03;;
38853;SDS011;24606;51.992;4.198;2023-12-28T21:18:01;27.52;;;3.13;;
38853;SDS011;24606;51.992;4.198;2023-12-28T21:23:03;12.20;;;2.65;;
38853;SDS011;24606;51.992;4.198;2023-12-28T21:28:07;22.37;;;4.57;;
38853;SDS011;24606;51.992;4.198;2023-12-28T21:33:10;27.60;;;4.15;;
38853;SDS011;24606;51.992;4.198;2023-12-28T21:38:12;32.33;;;5.55;;
38853;SDS011;24606;51.992;4.198;2023-12-28T21:48:39;5.47;;;3.10;;
38853;SDS011;24606;51.992;4.198;2023-12-28T21:53:41;0.20;;;0.20;;
38853;SDS011;24606;51.992;4.198;2023-12-28T21:58:44;1.85;;;0.55;;
38853;SDS011;24606;51.992;4.198;2023-12-28T22:03:47;0.20;;;0.20;;
38853;SDS011;24606;51.992;4.198;2023-12-28T22:08:49;3.97;;;0.65;;
38853;SDS011;24606;51.992;4.198;2023-12-28T22:13:55;0.10;;;0.10;;
38853;SDS011;24606;51.992;4.198;2023-12-28T22:18:57;0.10;;;0.10;;
38853;SDS011;24606;51.992;4.198;2023-12-28T22:24:00;0.63;;;0.63;;
38853;SDS011;24606;51.992;4.198;2023-12-28T22:29:03;0.38;;;0.38;;
38853;SDS011;24606;51.992;4.198;2023-12-28T22:34:06;0.20;;;0.20;;
38853;SDS011;24606;51.992;4.198;2023-12-28T22:39:08;27.33;;;4.50;;
38853;SDS011;24606;51.992;4.198;2023-12-28T22:44:11;37.45;;;4.50;;
38853;SDS011;24606;51.992;4.198;2023-12-28T22:49:13;35.05;;;4.75;;
38853;SDS011;24606;51.992;4.198;2023-12-28T22:54:18;34.58;;;3.97;;
38853;SDS011;24606;51.992;4.198;2023-12-28T22:59:22;28.35;;;3.33;;
38853;SDS011;24606;51.992;4.198;2023-12-28T23:04:24;51.38;;;6.07;;
38853;SDS011;24606;51.992;4.198;2023-12-28T23:09:26;20.63;;;3.63;;
38853;SDS011;24606;51.992;4.198;2023-12-28T23:14:30;37.57;;;5.03;;
38853;SDS011;24606;51.992;4.198;2023-12-28T23:19:32;22.73;;;3.53;;
38853;SDS011;24606;51.992;4.198;2023-12-28T23:24:38;30.88;;;5.07;;
38853;SDS011;24606;51.992;4.198;2023-12-28T23:29:42;26.83;;;4.20;;
38853;SDS011;24606;51.992;4.198;2023-12-28T23:34:44;28.10;;;2.80;;
38853;SDS011;24606;51.992;4.198;2023-12-28T23:39:46;0.20;;;0.20;;
38853;SDS011;24606;51.992;4.198;2023-12-28T23:44:50;1.40;;;1.30;;
38853;SDS011;24606;51.992;4.198;2023-12-28T23:49:52;33.65;;;4.65;;
38853;SDS011;24606;51.992;4.198;2023-12-28T23:54:55;23.90;;;3.88;;
38853;SDS011;24606;51.992;4.198;2023-12-28T23:59:59;37.28;;;5.95;;
